地図

経路データ

SID SEASON NUMBER BASIN SUBBASIN NAME ISO_TIME NATURE LAT LON WMO_WIND WMO_PRES WMO_AGENCY TRACK_TYPE DIST2LAND LANDFALL IFLAG USA_AGENCY USA_ATCF_ID USA_LAT USA_LON USA_RECORD USA_STATUS USA_WIND USA_PRES USA_SSHS USA_R34_NE USA_R34_SE USA_R34_SW USA_R34_NW USA_R50_NE USA_R50_SE USA_R50_SW USA_R50_NW USA_R64_NE USA_R64_SE USA_R64_SW USA_R64_NW USA_POCI USA_ROCI USA_RMW USA_EYE TOKYO_LAT TOKYO_LON TOKYO_GRADE TOKYO_WIND TOKYO_PRES TOKYO_R50_DIR TOKYO_R50_LONG TOKYO_R50_SHORT TOKYO_R30_DIR TOKYO_R30_LONG TOKYO_R30_SHORT TOKYO_LAND CMA_LAT CMA_LON CMA_CAT CMA_WIND CMA_PRES HKO_LAT HKO_LON HKO_CAT HKO_WIND HKO_PRES NEWDELHI_LAT NEWDELHI_LON NEWDELHI_GRADE NEWDELHI_WIND NEWDELHI_PRES NEWDELHI_CI NEWDELHI_DP NEWDELHI_POCI REUNION_LAT REUNION_LON REUNION_TYPE REUNION_WIND REUNION_PRES REUNION_TNUM REUNION_CI REUNION_RMW REUNION_R34_NE REUNION_R34_SE REUNION_R34_SW REUNION_R34_NW REUNION_R50_NE REUNION_R50_SE REUNION_R50_SW REUNION_R50_NW REUNION_R64_NE REUNION_R64_SE REUNION_R64_SW REUNION_R64_NW BOM_LAT BOM_LON BOM_TYPE BOM_WIND BOM_PRES BOM_TNUM BOM_CI BOM_RMW BOM_R34_NE BOM_R34_SE BOM_R34_SW BOM_R34_NW BOM_R50_NE BOM_R50_SE BOM_R50_SW BOM_R50_NW BOM_R64_NE BOM_R64_SE BOM_R64_SW BOM_R64_NW BOM_ROCI BOM_POCI BOM_EYE BOM_POS_METHOD BOM_PRES_METHOD NADI_LAT NADI_LON NADI_CAT NADI_WIND NADI_PRES WELLINGTON_LAT WELLINGTON_LON WELLINGTON_WIND WELLINGTON_PRES DS824_LAT DS824_LON DS824_STAGE DS824_WIND DS824_PRES TD9636_LAT TD9636_LON TD9636_STAGE TD9636_WIND TD9636_PRES TD9635_LAT TD9635_LON TD9635_WIND TD9635_PRES TD9635_ROCI NEUMANN_LAT NEUMANN_LON NEUMANN_CLASS NEUMANN_WIND NEUMANN_PRES MLC_LAT MLC_LON MLC_CLASS MLC_WIND MLC_PRES USA_GUST BOM_GUST BOM_GUST_PER REUNION_GUST REUNION_GUST_PER USA_SEAHGT USA_SEARAD_NE USA_SEARAD_SE USA_SEARAD_SW USA_SEARAD_NW STORM_SPEED STORM_DIR
1940139N12083 1940 24 NI BB NOT_NAMED 1940-05-18 00:00:00 TS 11.8000 82.7000 main 283 262 _________O____ -1 11.8000 82.7000 TC 30 3 282
1940139N12083 1940 24 NI BB NOT_NAMED 1940-05-18 03:00:00 TS 11.8350 82.5350 main 262 238 _________PO___ -1 11.8525 82.4525 TC 30 11.8000 82.7000 1 4 281
1940139N12083 1940 24 NI BB NOT_NAMED 1940-05-18 06:00:00 TS 11.8763 82.2919 main 238 217 _________OP___ -1 11.9000 82.2000 TC 30 11.8409 82.4298 1 5 280
1940139N12083 1940 24 NI BB NOT_NAMED 1940-05-18 09:00:00 TS 11.9180 82.0390 main 206 182 _________PP___ -1 11.9425 81.9425 TC 30 11.8853 82.1676 1 5 281
1940139N12083 1940 24 NI BB NOT_NAMED 1940-05-18 12:00:00 TS 11.9685 81.8108 main 182 162 _________OP___ -1 12.0000 81.7000 TC 30 11.9370 81.9217 1 5 286
1940139N12083 1940 24 NI BB NOT_NAMED 1940-05-18 15:00:00 TS 12.0425 81.5925 main 162 137 _________PO___ -1 12.0850 81.4850 TC 31 12.0000 81.7000 1 4 293
1940139N12083 1940 24 NI BB NOT_NAMED 1940-05-18 18:00:00 TS 12.1395 81.4037 main 137 124 _________OP___ -1 12.2000 81.3000 TC 32 12.0789 81.5074 1 4 302
1940139N12083 1940 24 NI BB NOT_NAMED 1940-05-18 21:00:00 TS 12.2549 81.2461 main 110 98 _________PP___ -1 12.3274 81.1574 TC 33 12.1823 81.3348 1 4 311
1940139N12083 1940 24 NI BB NOT_NAMED 1940-05-19 00:00:00 TS 12.4098 81.0849 main 98 76 _________OP___ -1 12.5000 81.0000 TC 34 12.3196 81.1698 1 5 315
1940139N12083 1940 24 NI BB NOT_NAMED 1940-05-19 03:00:00 TS 12.6138 80.8750 main 76 54 _________PO___ -1 12.7276 80.7501 TC 41 12.5000 81.0000 2 6 317
1940139N12083 1940 24 NI BB NOT_NAMED 1940-05-19 06:00:00 TS 12.8660 80.6435 main 43 31 _________OP___ -1 13.0000 80.5000 TC 49 12.7320 80.7871 2 7 322
1940139N12083 1940 24 NI BB NOT_NAMED 1940-05-19 09:00:00 TS 13.1525 80.4489 main 15 0 _________PP___ -1 13.3000 80.3275 TC 56 13.0051 80.5703 2 7 329
1940139N12083 1940 24 NI BB NOT_NAMED 1940-05-19 12:00:00 TS 13.4504 80.2842 main 0 0 _________OP___ -1 13.6000 80.2000 TC 64 13.3007 80.3683 2 6 333
1940139N12083 1940 24 NI BB NOT_NAMED 1940-05-19 15:00:00 TS 13.7250 80.1425 main 0 0 _________PO___ -1 13.8500 80.0850 TC 55 13.6000 80.2000 4 6 337
1940139N12083 1940 24 NI BB NOT_NAMED 1940-05-19 18:00:00 TS 13.9935 80.0424 main 0 0 _________OP___ -1 14.1000 80.0000 TC 47 13.8871 80.0848 4 6 344
1940139N12083 1940 24 NI BB NOT_NAMED 1940-05-19 21:00:00 TS 14.2899 79.9736 main 0 0 _________PP___ -1 14.4075 79.9425 TC 38 14.1724 80.0048 4 6 349
1940139N12083 1940 24 NI BB NOT_NAMED 1940-05-20 00:00:00 TS 14.5732 79.9237 main 0 0 _________OP___ -1 14.7000 79.9000 TC 30 14.4465 79.9474 4 5 350
1940139N12083 1940 24 NI BB NOT_NAMED 1940-05-20 03:00:00 TS 14.8075 79.8750 main 0 0 _________PO___ -1 14.9150 79.8500 TC 30 14.7000 79.9000 1 4 348
1940139N12083 1940 24 NI BB NOT_NAMED 1940-05-20 06:00:00 TS 15.0087 79.8214 main 0 0 _________OP___ -1 15.1000 79.8000 TC 30 14.9175 79.8427 1 4 347
1940139N12083 1940 24 NI BB NOT_NAMED 1940-05-20 09:00:00 TS 15.2075 79.7712 main 0 0 _________PP___ -1 15.3000 79.7500 TC 30 15.1150 79.7924 1 4 346
1940139N12083 1940 24 NI BB NOT_NAMED 1940-05-20 12:00:00 TS 15.4025 79.7229 main 0 0 _________OP___ -1 15.5000 79.7000 TC 30 15.3050 79.7458 1 4 347
1940139N12083 1940 24 NI BB NOT_NAMED 1940-05-20 15:00:00 TS 15.5962 79.6750 main 0 0 _________PO___ -1 15.6925 79.6500 TC 30 15.5000 79.7000 1 4 344
1940139N12083 1940 24 NI BB NOT_NAMED 1940-05-20 18:00:00 TS 15.8048 79.5968 main 0 0 _________OP___ -1 15.9000 79.6000 TC 30 15.7096 79.5936 1 5 339
1940139N12083 1940 24 NI BB NOT_NAMED 1940-05-20 21:00:00 TS 16.0274 79.5042 main 0 0 _________PP___ -1 16.1275 79.5127 TC 30 15.9273 79.4958 1 5 346
1940139N12083 1940 24 NI BB NOT_NAMED 1940-05-21 00:00:00 TS 16.2782 79.4750 main 0 0 _________OP___ -1 16.4000 79.5000 TC 30 16.1563 79.4500 1 6 6
1940139N12083 1940 24 NI BB NOT_NAMED 1940-05-21 03:00:00 TS 16.5787 79.5662 main 0 0 _________PO___ -1 16.7574 79.6324 TC 30 16.4000 79.5000 1 7 26
1940139N12083 1940 24 NI BB NOT_NAMED 1940-05-21 06:00:00 TS 16.8925 79.7872 main 0 0 _________OP___ -1 17.1000 79.9000 TC 30 16.6849 79.6745 1 8 42
1940139N12083 1940 24 NI BB NOT_NAMED 1940-05-21 09:00:00 TS 17.1587 80.1059 main 0 0 _________PP___ -1 17.3375 80.2625 TC 30 16.9799 79.9493 1 8 54
1940139N12083 1940 24 NI BB NOT_NAMED 1940-05-21 12:00:00 TS 17.3799 80.4998 main 0 0 _________OP___ -1 17.5000 80.7000 TC 30 17.2599 80.2995 1 9 63
1940139N12083 1940 24 NI BB NOT_NAMED 1940-05-21 15:00:00 TS 17.5537 80.9213 main 0 0 _________PO___ -1 17.6074 81.1427 TC 30 17.5000 80.7000 1 9 70
1940139N12083 1940 24 NI BB NOT_NAMED 1940-05-21 18:00:00 TS 17.6885 81.3758 main 0 0 _________OP___ -1 17.7000 81.6000 TC 30 17.6769 81.1516 1 9 73
1940139N12083 1940 24 NI BB NOT_NAMED 1940-05-21 21:00:00 TS 17.8306 81.8662 main 0 0 _________PP___ -1 17.8501 82.0949 TC 30 17.8110 81.6376 1 9 73
1940139N12083 1940 24 NI BB NOT_NAMED 1940-05-22 00:00:00 TS 17.9572 82.3024 main 0 0 _________OP___ -1 18.0000 82.5000 TC 30 17.9145 82.1047 1 7 72
1940139N12083 1940 24 NI BB NOT_NAMED 1940-05-22 03:00:00 TS 18.0574 82.5938 main 0 0 _________PO___ -1 18.1148 82.6876 TC 30 18.0000 82.5000 1 5 67
1940139N12083 1940 24 NI BB NOT_NAMED 1940-05-22 06:00:00 TS 18.1484 82.7751 main 0 0 _________OP___ -1 18.2000 82.8000 TC 30 18.0968 82.7503 1 4 65
1940139N12083 1940 24 NI BB NOT_NAMED 1940-05-22 09:00:00 TS 18.2183 82.9589 main 0 0 _________PP___ -1 18.2575 82.9925 TC 30 18.1792 82.9253 1 4 70
1940139N12083 1940 24 NI BB NOT_NAMED 1940-05-22 12:00:00 TS 18.2735 83.1313 main 0 0 _________OP___ -1 18.3000 83.2000 TC 30 18.2470 83.0627 1 3 71
1940139N12083 1940 24 NI BB NOT_NAMED 1940-05-22 15:00:00 TS 18.3287 83.3000 main 0 0 _________PO___ -1 18.3575 83.4000 TC 30 18.3000 83.2000 1 3 76
1940139N12083 1940 24 NI BB NOT_NAMED 1940-05-22 18:00:00 TS 18.3508 83.4523 main 0 0 _________OP___ -1 18.4000 83.6000 TC 30 18.3016 83.3045 1 3 89
1940139N12083 1940 24 NI BB NOT_NAMED 1940-05-22 21:00:00 TS 18.3324 83.5736 main 0 0 _________PP___ -1 18.3695 83.7179 TC 30 18.2954 83.4293 1 3 89
1940139N12083 1940 24 NI BB NOT_NAMED 1940-05-23 00:00:00 TS 18.3583 83.8197 main 0 0 _________OP___ -1 18.4000 84.0000 TC 30 18.3166 83.6394 1 7 76
1940139N12083 1940 24 NI BB NOT_NAMED 1940-05-23 03:00:00 TS 18.5065 84.3336 main 0 0 _________PO___ -1 18.6129 84.6672 TC 30 18.4000 84.0000 1 12 72
1940139N12083 1940 24 NI BB NOT_NAMED 1940-05-23 06:00:00 TS 18.7370 85.0397 main 43 43 _________OP___ -1 18.9000 85.5000 TC 30 18.5741 84.5795 1 14 71
1940139N12083 1940 24 NI BB NOT_NAMED 1940-05-23 09:00:00 TS 18.9766 85.7739 main 79 79 _________PP___ -1 19.1420 86.2354 TC 30 18.8112 85.3125 1 15 71
1940139N12083 1940 24 NI BB NOT_NAMED 1940-05-23 12:00:00 TS 19.2463 86.5696 main 91 81 _________OP___ -1 19.4000 87.0000 TC 30 19.0925 86.1393 1 17 70
1940139N12083 1940 24 NI BB NOT_NAMED 1940-05-23 15:00:00 TS 19.5425 87.4214 main 115 114 _________PO___ -1 19.6849 87.8427 TC 30 19.4000 87.0000 1 17 69
1940139N12083 1940 24 NI BB NOT_NAMED 1940-05-23 18:00:00 TS 19.8394 88.2118 main 160 160 _________OP___ -1 20.0000 88.7000 TC 30 19.7189 87.8456 1 16 67
1940139N12083 1940 24 NI BB NOT_NAMED 1940-05-23 21:00:00 TS 20.1636 89.0092 main 156 137 _________PP___ -1 20.3430 89.5143 TC 30 20.0440 88.6725 1 16 66
1940139N12083 1940 24 NI BB NOT_NAMED 1940-05-24 00:00:00 TS 20.4814 89.7588 main 140 123 _________OP___ -1 20.7000 90.3000 TC 30 20.3722 89.4882 1 13 66
1940139N12083 1940 24 NI BB NOT_NAMED 1940-05-24 03:00:00 NR 20.7000 90.3000 main 123 __________O___ -1 TC 20.7000 90.3000 1 11 67

IBTrACS Databaseについて

本データベースは、米国NOAAが公開する1842年以降の世界の熱帯低気圧のベストトラックデータアーカイブInternational Best Track Archive for Climate Stewardship (IBTrACS)を、ウェブで閲覧しやすい形式に変換したものです。

最終更新日:2021-12-06